sensor_id;sensor_type;location;lat;lon;timestamp;temperature;humidity
69626;DHT22;56847;51.984;5.088;2022-07-29T00:00:08;20.50;52.00
69626;DHT22;56847;51.984;5.088;2022-07-29T00:02:35;20.50;52.10
69626;DHT22;56847;51.984;5.088;2022-07-29T00:05:03;20.50;52.10
69626;DHT22;56847;51.984;5.088;2022-07-29T00:07:31;20.50;52.10
69626;DHT22;56847;51.984;5.088;2022-07-29T00:09:58;20.50;52.20
69626;DHT22;56847;51.984;5.088;2022-07-29T00:12:25;20.40;52.20
69626;DHT22;56847;51.984;5.088;2022-07-29T00:14:54;20.40;52.30
69626;DHT22;56847;51.984;5.088;2022-07-29T00:17:23;20.40;52.40
69626;DHT22;56847;51.984;5.088;2022-07-29T00:19:50;20.30;52.50
69626;DHT22;56847;51.984;5.088;2022-07-29T00:22:17;20.30;52.50
69626;DHT22;56847;51.984;5.088;2022-07-29T00:24:44;20.30;52.60
69626;DHT22;56847;51.984;5.088;2022-07-29T00:27:11;20.20;52.60
69626;DHT22;56847;51.984;5.088;2022-07-29T00:29:38;20.20;52.70
69626;DHT22;56847;51.984;5.088;2022-07-29T00:32:05;20.20;52.80
69626;DHT22;56847;51.984;5.088;2022-07-29T00:34:35;20.20;52.90
69626;DHT22;56847;51.984;5.088;2022-07-29T00:37:20;20.20;52.90
69626;DHT22;56847;51.984;5.088;2022-07-29T00:39:47;20.10;52.90
69626;DHT22;56847;51.984;5.088;2022-07-29T00:42:14;20.10;53.00
69626;DHT22;56847;51.984;5.088;2022-07-29T00:44:43;20.10;53.10
69626;DHT22;56847;51.984;5.088;2022-07-29T00:47:13;20.10;53.10
69626;DHT22;56847;51.984;5.088;2022-07-29T00:49:41;20.10;53.20
69626;DHT22;56847;51.984;5.088;2022-07-29T00:52:09;20.10;53.20
69626;DHT22;56847;51.984;5.088;2022-07-29T00:54:38;20.00;53.20
69626;DHT22;56847;51.984;5.088;2022-07-29T00:57:11;20.00;53.30
69626;DHT22;56847;51.984;5.088;2022-07-29T00:59:39;20.00;53.30
69626;DHT22;56847;51.984;5.088;2022-07-29T01:02:06;19.90;53.50
69626;DHT22;56847;51.984;5.088;2022-07-29T01:04:33;19.90;53.50
69626;DHT22;56847;51.984;5.088;2022-07-29T01:07:04;19.90;53.60
69626;DHT22;56847;51.984;5.088;2022-07-29T01:09:32;19.90;53.60
69626;DHT22;56847;51.984;5.088;2022-07-29T01:12:15;19.90;53.70
69626;DHT22;56847;51.984;5.088;2022-07-29T01:14:42;19.80;53.80
69626;DHT22;56847;51.984;5.088;2022-07-29T01:17:32;19.80;53.90
69626;DHT22;56847;51.984;5.088;2022-07-29T01:20:26;19.70;54.10
69626;DHT22;56847;51.984;5.088;2022-07-29T01:28:55;19.70;54.40
69626;DHT22;56847;51.984;5.088;2022-07-29T01:37:33;19.70;54.40
69626;DHT22;56847;51.984;5.088;2022-07-29T01:40:03;19.70;54.50
69626;DHT22;56847;51.984;5.088;2022-07-29T01:42:38;19.70;54.40
69626;DHT22;56847;51.984;5.088;2022-07-29T01:50:46;19.60;54.60
69626;DHT22;56847;51.984;5.088;2022-07-29T01:53:21;19.60;54.60
69626;DHT22;56847;51.984;5.088;2022-07-29T01:55:48;19.70;54.60
69626;DHT22;56847;51.984;5.088;2022-07-29T01:58:17;19.70;54.60
69626;DHT22;56847;51.984;5.088;2022-07-29T02:00:46;19.70;54.60
69626;DHT22;56847;51.984;5.088;2022-07-29T02:03:16;19.70;54.70
69626;DHT22;56847;51.984;5.088;2022-07-29T02:05:45;19.70;54.70
69626;DHT22;56847;51.984;5.088;2022-07-29T02:08:13;19.60;54.80
69626;DHT22;56847;51.984;5.088;2022-07-29T02:10:42;19.60;54.80
69626;DHT22;56847;51.984;5.088;2022-07-29T02:13:12;19.60;54.80
69626;DHT22;56847;51.984;5.088;2022-07-29T02:15:41;19.60;54.90
69626;DHT22;56847;51.984;5.088;2022-07-29T02:18:20;19.60;54.90
69626;DHT22;56847;51.984;5.088;2022-07-29T02:20:52;19.60;55.00
69626;DHT22;56847;51.984;5.088;2022-07-29T02:23:22;19.50;54.90
69626;DHT22;56847;51.984;5.088;2022-07-29T02:25:53;19.50;55.00
69626;DHT22;56847;51.984;5.088;2022-07-29T02:28:24;19.50;55.00
69626;DHT22;56847;51.984;5.088;2022-07-29T02:30:52;19.50;55.10
69626;DHT22;56847;51.984;5.088;2022-07-29T02:33:20;19.50;55.10
69626;DHT22;56847;51.984;5.088;2022-07-29T02:35:49;19.50;55.10
69626;DHT22;56847;51.984;5.088;2022-07-29T02:38:18;19.50;55.10
69626;DHT22;56847;51.984;5.088;2022-07-29T02:41:10;19.50;55.10
69626;DHT22;56847;51.984;5.088;2022-07-29T02:43:39;19.50;55.10
69626;DHT22;56847;51.984;5.088;2022-07-29T02:46:13;19.50;55.10
69626;DHT22;56847;51.984;5.088;2022-07-29T02:51:37;19.50;55.30
69626;DHT22;56847;51.984;5.088;2022-07-29T02:54:14;19.40;55.30
69626;DHT22;56847;51.984;5.088;2022-07-29T02:56:46;19.40;55.30
69626;DHT22;56847;51.984;5.088;2022-07-29T02:59:20;19.40;55.30
69626;DHT22;56847;51.984;5.088;2022-07-29T03:01:49;19.40;55.40
69626;DHT22;56847;51.984;5.088;2022-07-29T03:04:19;19.40;55.40
69626;DHT22;56847;51.984;5.088;2022-07-29T03:06:48;19.40;55.50
69626;DHT22;56847;51.984;5.088;2022-07-29T03:09:17;19.30;55.50
69626;DHT22;56847;51.984;5.088;2022-07-29T03:11:44;19.30;55.50
69626;DHT22;56847;51.984;5.088;2022-07-29T03:14:18;19.30;55.50
69626;DHT22;56847;51.984;5.088;2022-07-29T03:16:47;19.30;55.50
69626;DHT22;56847;51.984;5.088;2022-07-29T03:19:15;19.30;55.60
69626;DHT22;56847;51.984;5.088;2022-07-29T03:21:43;19.30;55.60
69626;DHT22;56847;51.984;5.088;2022-07-29T03:24:22;19.30;55.60
69626;DHT22;56847;51.984;5.088;2022-07-29T03:26:50;19.20;55.70
69626;DHT22;56847;51.984;5.088;2022-07-29T03:29:17;19.20;55.80
69626;DHT22;56847;51.984;5.088;2022-07-29T03:31:45;19.20;55.80
69626;DHT22;56847;51.984;5.088;2022-07-29T03:34:14;19.20;55.80
69626;DHT22;56847;51.984;5.088;2022-07-29T03:36:41;19.20;55.80
69626;DHT22;56847;51.984;5.088;2022-07-29T03:39:10;19.20;55.80
69626;DHT22;56847;51.984;5.088;2022-07-29T03:41:38;19.10;56.00
69626;DHT22;56847;51.984;5.088;2022-07-29T03:44:09;19.10;56.10
69626;DHT22;56847;51.984;5.088;2022-07-29T03:46:38;19.10;56.10
69626;DHT22;56847;51.984;5.088;2022-07-29T03:49:06;19.10;56.10
69626;DHT22;56847;51.984;5.088;2022-07-29T03:51:35;19.10;56.20
69626;DHT22;56847;51.984;5.088;2022-07-29T03:54:03;19.00;56.30
69626;DHT22;56847;51.984;5.088;2022-07-29T03:56:39;19.10;56.30
69626;DHT22;56847;51.984;5.088;2022-07-29T03:59:07;19.10;56.30
69626;DHT22;56847;51.984;5.088;2022-07-29T04:01:34;19.00;56.30
69626;DHT22;56847;51.984;5.088;2022-07-29T04:04:02;19.00;56.30
69626;DHT22;56847;51.984;5.088;2022-07-29T04:06:38;19.00;56.30
69626;DHT22;56847;51.984;5.088;2022-07-29T04:09:06;19.00;56.30
69626;DHT22;56847;51.984;5.088;2022-07-29T04:11:36;19.00;56.40
69626;DHT22;56847;51.984;5.088;2022-07-29T04:14:24;19.00;56.40
69626;DHT22;56847;51.984;5.088;2022-07-29T04:16:51;19.00;56.40
69626;DHT22;56847;51.984;5.088;2022-07-29T04:19:19;19.00;56.40
69626;DHT22;56847;51.984;5.088;2022-07-29T04:21:46;19.00;56.40
69626;DHT22;56847;51.984;5.088;2022-07-29T04:24:13;19.00;56.40
69626;DHT22;56847;51.984;5.088;2022-07-29T04:26:41;19.00;56.50
69626;DHT22;56847;51.984;5.088;2022-07-29T04:29:09;19.00;56.60
69626;DHT22;56847;51.984;5.088;2022-07-29T04:31:36;19.00;56.50
69626;DHT22;56847;51.984;5.088;2022-07-29T04:34:03;19.00;56.50
69626;DHT22;56847;51.984;5.088;2022-07-29T04:36:30;19.10;56.60
69626;DHT22;56847;51.984;5.088;2022-07-29T04:38:57;19.10;56.50
69626;DHT22;56847;51.984;5.088;2022-07-29T04:41:25;19.10;56.50
69626;DHT22;56847;51.984;5.088;2022-07-29T04:44:02;19.10;56.50
69626;DHT22;56847;51.984;5.088;2022-07-29T04:46:36;19.20;56.40
69626;DHT22;56847;51.984;5.088;2022-07-29T04:49:03;19.20;56.30
69626;DHT22;56847;51.984;5.088;2022-07-29T04:51:34;19.30;56.30
69626;DHT22;56847;51.984;5.088;2022-07-29T04:54:01;19.30;56.20
69626;DHT22;56847;51.984;5.088;2022-07-29T04:56:28;19.30;56.20
69626;DHT22;56847;51.984;5.088;2022-07-29T04:58:55;19.30;56.20
69626;DHT22;56847;51.984;5.088;2022-07-29T05:01:22;19.30;56.10
69626;DHT22;56847;51.984;5.088;2022-07-29T05:03:49;19.30;56.10
69626;DHT22;56847;51.984;5.088;2022-07-29T05:06:16;19.30;56.10
69626;DHT22;56847;51.984;5.088;2022-07-29T05:08:43;19.40;56.10
69626;DHT22;56847;51.984;5.088;2022-07-29T05:11:10;19.40;56.00
69626;DHT22;56847;51.984;5.088;2022-07-29T05:13:42;19.40;56.00
69626;DHT22;56847;51.984;5.088;2022-07-29T05:16:12;19.40;55.90
69626;DHT22;56847;51.984;5.088;2022-07-29T05:18:41;19.40;55.90
69626;DHT22;56847;51.984;5.088;2022-07-29T05:21:09;19.40;55.90
69626;DHT22;56847;51.984;5.088;2022-07-29T05:23:36;19.40;56.00
69626;DHT22;56847;51.984;5.088;2022-07-29T05:26:03;19.40;55.90
69626;DHT22;56847;51.984;5.088;2022-07-29T05:28:33;19.40;55.90
69626;DHT22;56847;51.984;5.088;2022-07-29T05:31:01;19.50;55.90
69626;DHT22;56847;51.984;5.088;2022-07-29T05:33:31;19.60;55.90
69626;DHT22;56847;51.984;5.088;2022-07-29T05:36:03;19.60;55.80
69626;DHT22;56847;51.984;5.088;2022-07-29T05:38:33;19.70;55.50
69626;DHT22;56847;51.984;5.088;2022-07-29T05:41:00;19.70;55.50
69626;DHT22;56847;51.984;5.088;2022-07-29T05:43:29;19.70;55.30
69626;DHT22;56847;51.984;5.088;2022-07-29T05:45:56;19.70;55.30
69626;DHT22;56847;51.984;5.088;2022-07-29T05:48:23;19.70;55.40
69626;DHT22;56847;51.984;5.088;2022-07-29T05:50:51;19.80;55.40
69626;DHT22;56847;51.984;5.088;2022-07-29T05:53:18;19.80;55.30
69626;DHT22;56847;51.984;5.088;2022-07-29T05:55:49;19.80;55.30
69626;DHT22;56847;51.984;5.088;2022-07-29T05:58:16;19.80;55.30
69626;DHT22;56847;51.984;5.088;2022-07-29T06:00:44;19.90;55.30
69626;DHT22;56847;51.984;5.088;2022-07-29T06:03:11;19.90;55.30
69626;DHT22;56847;51.984;5.088;2022-07-29T06:05:39;19.90;55.30
69626;DHT22;56847;51.984;5.088;2022-07-29T06:08:06;20.00;55.30
69626;DHT22;56847;51.984;5.088;2022-07-29T06:10:37;20.00;55.30
69626;DHT22;56847;51.984;5.088;2022-07-29T06:13:04;20.10;55.10
69626;DHT22;56847;51.984;5.088;2022-07-29T06:15:32;20.10;55.00
69626;DHT22;56847;51.984;5.088;2022-07-29T06:18:00;20.00;55.00
69626;DHT22;56847;51.984;5.088;2022-07-29T06:20:29;20.00;55.00
69626;DHT22;56847;51.984;5.088;2022-07-29T06:22:59;20.00;55.10
69626;DHT22;56847;51.984;5.088;2022-07-29T06:25:27;20.00;55.20
69626;DHT22;56847;51.984;5.088;2022-07-29T06:27:57;20.10;55.30
69626;DHT22;56847;51.984;5.088;2022-07-29T06:30:24;20.20;55.30
69626;DHT22;56847;51.984;5.088;2022-07-29T06:32:51;20.40;55.30
69626;DHT22;56847;51.984;5.088;2022-07-29T06:35:18;20.60;55.20
69626;DHT22;56847;51.984;5.088;2022-07-29T06:38:08;20.80;55.00
69626;DHT22;56847;51.984;5.088;2022-07-29T06:40:56;21.10;54.60
69626;DHT22;56847;51.984;5.088;2022-07-29T06:43:39;21.40;53.90
69626;DHT22;56847;51.984;5.088;2022-07-29T06:46:17;21.50;53.30
69626;DHT22;56847;51.984;5.088;2022-07-29T06:48:45;21.60;53.10
69626;DHT22;56847;51.984;5.088;2022-07-29T06:51:12;21.70;52.80
69626;DHT22;56847;51.984;5.088;2022-07-29T06:53:40;21.90;52.30
69626;DHT22;56847;51.984;5.088;2022-07-29T06:56:27;22.00;52.30
69626;DHT22;56847;51.984;5.088;2022-07-29T06:58:54;22.00;52.00
69626;DHT22;56847;51.984;5.088;2022-07-29T07:01:21;21.90;51.60
69626;DHT22;56847;51.984;5.088;2022-07-29T07:03:48;21.70;51.70
69626;DHT22;56847;51.984;5.088;2022-07-29T07:06:15;21.60;51.80
69626;DHT22;56847;51.984;5.088;2022-07-29T07:08:42;21.50;51.80
69626;DHT22;56847;51.984;5.088;2022-07-29T07:11:12;21.50;52.10
69626;DHT22;56847;51.984;5.088;2022-07-29T07:13:39;21.50;52.20
69626;DHT22;56847;51.984;5.088;2022-07-29T07:16:06;21.50;52.10
69626;DHT22;56847;51.984;5.088;2022-07-29T07:18:33;21.60;52.10
69626;DHT22;56847;51.984;5.088;2022-07-29T07:21:00;21.60;52.40
69626;DHT22;56847;51.984;5.088;2022-07-29T07:23:27;21.90;52.40
69626;DHT22;56847;51.984;5.088;2022-07-29T07:25:54;22.20;51.90
69626;DHT22;56847;51.984;5.088;2022-07-29T07:28:21;22.30;51.40
69626;DHT22;56847;51.984;5.088;2022-07-29T07:30:51;22.30;51.00
69626;DHT22;56847;51.984;5.088;2022-07-29T07:33:19;22.40;50.80
69626;DHT22;56847;51.984;5.088;2022-07-29T07:35:46;22.40;50.50
69626;DHT22;56847;51.984;5.088;2022-07-29T07:38:13;22.50;50.50
69626;DHT22;56847;51.984;5.088;2022-07-29T07:40:41;22.60;50.50
69626;DHT22;56847;51.984;5.088;2022-07-29T07:43:08;22.80;50.30
69626;DHT22;56847;51.984;5.088;2022-07-29T07:45:36;23.00;49.80
69626;DHT22;56847;51.984;5.088;2022-07-29T07:48:04;23.00;49.50
69626;DHT22;56847;51.984;5.088;2022-07-29T07:50:31;23.00;49.20
69626;DHT22;56847;51.984;5.088;2022-07-29T07:52:58;23.00;49.10
69626;DHT22;56847;51.984;5.088;2022-07-29T07:55:26;22.90;49.10
69626;DHT22;56847;51.984;5.088;2022-07-29T07:57:56;22.90;49.20
69626;DHT22;56847;51.984;5.088;2022-07-29T08:00:23;22.80;49.30
69626;DHT22;56847;51.984;5.088;2022-07-29T08:02:50;22.80;49.40
69626;DHT22;56847;51.984;5.088;2022-07-29T08:05:17;22.70;49.60
69626;DHT22;56847;51.984;5.088;2022-07-29T08:07:45;22.70;49.60
69626;DHT22;56847;51.984;5.088;2022-07-29T08:10:14;22.70;49.80
69626;DHT22;56847;51.984;5.088;2022-07-29T08:12:43;22.80;50.00
69626;DHT22;56847;51.984;5.088;2022-07-29T08:15:14;23.00;50.10
69626;DHT22;56847;51.984;5.088;2022-07-29T08:17:41;23.30;50.00
69626;DHT22;56847;51.984;5.088;2022-07-29T08:20:09;23.50;49.70
69626;DHT22;56847;51.984;5.088;2022-07-29T08:22:36;23.80;49.10
69626;DHT22;56847;51.984;5.088;2022-07-29T08:25:03;23.90;49.10
69626;DHT22;56847;51.984;5.088;2022-07-29T08:27:30;24.00;48.80
69626;DHT22;56847;51.984;5.088;2022-07-29T08:30:10;24.00;48.50
69626;DHT22;56847;51.984;5.088;2022-07-29T08:32:37;24.20;48.60
69626;DHT22;56847;51.984;5.088;2022-07-29T08:35:22;24.30;48.20
69626;DHT22;56847;51.984;5.088;2022-07-29T08:37:50;24.40;48.30
69626;DHT22;56847;51.984;5.088;2022-07-29T08:40:17;24.40;48.00
69626;DHT22;56847;51.984;5.088;2022-07-29T08:42:45;24.60;48.20
69626;DHT22;56847;51.984;5.088;2022-07-29T08:45:12;24.80;48.10
69626;DHT22;56847;51.984;5.088;2022-07-29T08:47:41;25.10;47.60
69626;DHT22;56847;51.984;5.088;2022-07-29T08:50:10;25.10;46.90
69626;DHT22;56847;51.984;5.088;2022-07-29T08:52:39;25.00;46.90
69626;DHT22;56847;51.984;5.088;2022-07-29T08:55:08;24.90;46.70
69626;DHT22;56847;51.984;5.088;2022-07-29T08:57:36;24.90;46.90
69626;DHT22;56847;51.984;5.088;2022-07-29T09:00:18;25.00;46.90
69626;DHT22;56847;51.984;5.088;2022-07-29T09:02:47;25.00;47.00
69626;DHT22;56847;51.984;5.088;2022-07-29T09:05:19;25.10;47.30
69626;DHT22;56847;51.984;5.088;2022-07-29T09:07:46;25.40;47.30
69626;DHT22;56847;51.984;5.088;2022-07-29T09:10:14;25.60;47.10
69626;DHT22;56847;51.984;5.088;2022-07-29T09:12:42;25.80;46.30
69626;DHT22;56847;51.984;5.088;2022-07-29T09:15:09;25.90;45.90
69626;DHT22;56847;51.984;5.088;2022-07-29T09:17:54;25.90;45.80
69626;DHT22;56847;51.984;5.088;2022-07-29T09:20:24;26.00;45.40
69626;DHT22;56847;51.984;5.088;2022-07-29T09:22:52;26.00;45.50
69626;DHT22;56847;51.984;5.088;2022-07-29T09:25:34;26.20;45.40
69626;DHT22;56847;51.984;5.088;2022-07-29T09:28:09;26.30;44.80
69626;DHT22;56847;51.984;5.088;2022-07-29T09:30:54;26.30;44.60
69626;DHT22;56847;51.984;5.088;2022-07-29T09:33:22;26.40;44.50
69626;DHT22;56847;51.984;5.088;2022-07-29T09:36:07;26.70;44.60
69626;DHT22;56847;51.984;5.088;2022-07-29T09:38:35;26.80;43.60
69626;DHT22;56847;51.984;5.088;2022-07-29T09:41:04;26.90;43.50
69626;DHT22;56847;51.984;5.088;2022-07-29T09:43:35;27.10;43.30
69626;DHT22;56847;51.984;5.088;2022-07-29T09:46:12;27.20;42.90
69626;DHT22;56847;51.984;5.088;2022-07-29T09:48:40;27.50;42.40
69626;DHT22;56847;51.984;5.088;2022-07-29T09:51:17;27.60;42.10
69626;DHT22;56847;51.984;5.088;2022-07-29T09:53:47;27.80;42.00
69626;DHT22;56847;51.984;5.088;2022-07-29T09:56:14;27.90;41.90
69626;DHT22;56847;51.984;5.088;2022-07-29T09:58:41;28.00;41.70
69626;DHT22;56847;51.984;5.088;2022-07-29T10:01:08;28.20;41.50
69626;DHT22;56847;51.984;5.088;2022-07-29T10:03:52;28.30;41.40
69626;DHT22;56847;51.984;5.088;2022-07-29T10:06:19;28.50;40.90
69626;DHT22;56847;51.984;5.088;2022-07-29T10:08:46;28.50;41.00
69626;DHT22;56847;51.984;5.088;2022-07-29T10:11:16;28.60;40.90
69626;DHT22;56847;51.984;5.088;2022-07-29T10:13:45;28.70;41.00
69626;DHT22;56847;51.984;5.088;2022-07-29T10:16:13;29.00;41.00
69626;DHT22;56847;51.984;5.088;2022-07-29T10:18:41;29.20;40.60
69626;DHT22;56847;51.984;5.088;2022-07-29T10:21:09;29.30;40.10
69626;DHT22;56847;51.984;5.088;2022-07-29T10:23:48;29.50;39.90
69626;DHT22;56847;51.984;5.088;2022-07-29T10:26:16;29.80;39.40
69626;DHT22;56847;51.984;5.088;2022-07-29T10:28:44;30.00;39.10
69626;DHT22;56847;51.984;5.088;2022-07-29T10:31:19;30.20;38.70
69626;DHT22;56847;51.984;5.088;2022-07-29T10:34:16;30.20;38.40
69626;DHT22;56847;51.984;5.088;2022-07-29T10:36:53;30.40;37.90
69626;DHT22;56847;51.984;5.088;2022-07-29T10:42:31;30.50;37.70
69626;DHT22;56847;51.984;5.088;2022-07-29T10:45:01;30.60;37.70
69626;DHT22;56847;51.984;5.088;2022-07-29T10:47:30;30.70;37.10
69626;DHT22;56847;51.984;5.088;2022-07-29T10:50:03;30.60;37.40
69626;DHT22;56847;51.984;5.088;2022-07-29T10:55:33;30.60;37.10
69626;DHT22;56847;51.984;5.088;2022-07-29T10:58:28;30.60;37.00
69626;DHT22;56847;51.984;5.088;2022-07-29T11:00:56;30.50;36.90
69626;DHT22;56847;51.984;5.088;2022-07-29T11:03:44;30.30;37.20
69626;DHT22;56847;51.984;5.088;2022-07-29T11:06:19;30.10;37.30
69626;DHT22;56847;51.984;5.088;2022-07-29T11:09:16;29.90;37.80
69626;DHT22;56847;51.984;5.088;2022-07-29T11:12:01;29.60;38.30
69626;DHT22;56847;51.984;5.088;2022-07-29T11:17:24;29.40;38.80
69626;DHT22;56847;51.984;5.088;2022-07-29T11:22:58;28.90;39.20
69626;DHT22;56847;51.984;5.088;2022-07-29T11:25:26;28.90;39.70
69626;DHT22;56847;51.984;5.088;2022-07-29T11:28:21;29.00;39.60
69626;DHT22;56847;51.984;5.088;2022-07-29T11:30:54;29.20;39.30
69626;DHT22;56847;51.984;5.088;2022-07-29T11:33:41;29.20;39.20
69626;DHT22;56847;51.984;5.088;2022-07-29T11:36:22;29.20;39.20
69626;DHT22;56847;51.984;5.088;2022-07-29T11:39:24;29.30;39.20
69626;DHT22;56847;51.984;5.088;2022-07-29T11:45:09;29.50;38.60
69626;DHT22;56847;51.984;5.088;2022-07-29T11:47:57;29.40;38.60
69626;DHT22;56847;51.984;5.088;2022-07-29T11:50:45;29.50;38.70
69626;DHT22;56847;51.984;5.088;2022-07-29T11:53:14;29.50;38.60
69626;DHT22;56847;51.984;5.088;2022-07-29T11:55:42;29.60;38.10
69626;DHT22;56847;51.984;5.088;2022-07-29T11:58:22;29.70;38.00
69626;DHT22;56847;51.984;5.088;2022-07-29T12:00:54;29.90;38.30
69626;DHT22;56847;51.984;5.088;2022-07-29T12:03:27;30.00;38.10
69626;DHT22;56847;51.984;5.088;2022-07-29T12:06:03;30.00;37.60
69626;DHT22;56847;51.984;5.088;2022-07-29T12:08:40;30.00;37.60
69626;DHT22;56847;51.984;5.088;2022-07-29T12:11:20;30.10;37.60
69626;DHT22;56847;51.984;5.088;2022-07-29T12:13:51;30.10;37.40
69626;DHT22;56847;51.984;5.088;2022-07-29T12:16:20;29.90;37.20
69626;DHT22;56847;51.984;5.088;2022-07-29T12:18:56;29.70;37.50
69626;DHT22;56847;51.984;5.088;2022-07-29T12:21:23;29.60;37.70
69626;DHT22;56847;51.984;5.088;2022-07-29T12:23:56;29.70;37.80
69626;DHT22;56847;51.984;5.088;2022-07-29T12:26:34;29.70;37.80
69626;DHT22;56847;51.984;5.088;2022-07-29T12:29:02;29.80;37.80
69626;DHT22;56847;51.984;5.088;2022-07-29T12:31:29;29.80;37.50
69626;DHT22;56847;51.984;5.088;2022-07-29T12:34:15;29.80;37.50
69626;DHT22;56847;51.984;5.088;2022-07-29T12:36:43;30.00;37.10
69626;DHT22;56847;51.984;5.088;2022-07-29T12:39:10;30.00;37.30
69626;DHT22;56847;51.984;5.088;2022-07-29T12:41:38;30.00;37.00
69626;DHT22;56847;51.984;5.088;2022-07-29T12:44:05;29.90;37.20
69626;DHT22;56847;51.984;5.088;2022-07-29T12:46:32;30.00;37.10
69626;DHT22;56847;51.984;5.088;2022-07-29T12:48:59;30.00;36.80
69626;DHT22;56847;51.984;5.088;2022-07-29T12:51:37;30.10;36.60
69626;DHT22;56847;51.984;5.088;2022-07-29T12:54:11;30.20;36.50
69626;DHT22;56847;51.984;5.088;2022-07-29T12:56:41;30.10;36.20
69626;DHT22;56847;51.984;5.088;2022-07-29T12:59:21;30.10;36.30
69626;DHT22;56847;51.984;5.088;2022-07-29T13:01:50;30.00;36.60
69626;DHT22;56847;51.984;5.088;2022-07-29T13:04:33;30.00;36.70
69626;DHT22;56847;51.984;5.088;2022-07-29T13:07:04;30.20;36.90
69626;DHT22;56847;51.984;5.088;2022-07-29T13:09:43;30.30;36.80
69626;DHT22;56847;51.984;5.088;2022-07-29T13:12:13;30.20;36.70
69626;DHT22;56847;51.984;5.088;2022-07-29T13:14:42;30.20;36.80
69626;DHT22;56847;51.984;5.088;2022-07-29T13:17:12;30.20;36.40
69626;DHT22;56847;51.984;5.088;2022-07-29T13:19:43;30.10;36.10
69626;DHT22;56847;51.984;5.088;2022-07-29T13:22:13;30.10;36.10
69626;DHT22;56847;51.984;5.088;2022-07-29T13:24:55;30.00;36.60
69626;DHT22;56847;51.984;5.088;2022-07-29T13:27:28;30.10;37.10
69626;DHT22;56847;51.984;5.088;2022-07-29T13:30:00;30.10;37.10
69626;DHT22;56847;51.984;5.088;2022-07-29T13:32:28;30.00;37.10
69626;DHT22;56847;51.984;5.088;2022-07-29T13:34:59;29.90;37.40
69626;DHT22;56847;51.984;5.088;2022-07-29T13:37:33;29.90;37.30
69626;DHT22;56847;51.984;5.088;2022-07-29T13:40:03;29.90;37.30
69626;DHT22;56847;51.984;5.088;2022-07-29T13:42:32;30.00;37.30
69626;DHT22;56847;51.984;5.088;2022-07-29T13:44:59;30.00;37.30
69626;DHT22;56847;51.984;5.088;2022-07-29T13:47:27;30.00;36.90
69626;DHT22;56847;51.984;5.088;2022-07-29T13:49:59;30.00;37.10
69626;DHT22;56847;51.984;5.088;2022-07-29T13:52:26;30.00;37.50
69626;DHT22;56847;51.984;5.088;2022-07-29T13:54:53;30.00;37.70
69626;DHT22;56847;51.984;5.088;2022-07-29T13:57:20;30.20;37.70
69626;DHT22;56847;51.984;5.088;2022-07-29T13:59:47;30.20;37.20
69626;DHT22;56847;51.984;5.088;2022-07-29T14:02:20;30.10;36.90
69626;DHT22;56847;51.984;5.088;2022-07-29T14:04:54;30.10;37.10
69626;DHT22;56847;51.984;5.088;2022-07-29T14:07:22;30.10;36.50
69626;DHT22;56847;51.984;5.088;2022-07-29T14:09:49;30.00;36.60
69626;DHT22;56847;51.984;5.088;2022-07-29T14:12:17;30.10;36.60
69626;DHT22;56847;51.984;5.088;2022-07-29T14:14:44;30.00;36.80
69626;DHT22;56847;51.984;5.088;2022-07-29T14:17:13;30.10;36.90
69626;DHT22;56847;51.984;5.088;2022-07-29T14:19:40;30.10;37.20
69626;DHT22;56847;51.984;5.088;2022-07-29T14:22:08;30.10;36.80
69626;DHT22;56847;51.984;5.088;2022-07-29T14:24:38;30.00;36.50
69626;DHT22;56847;51.984;5.088;2022-07-29T14:27:07;30.00;36.40
69626;DHT22;56847;51.984;5.088;2022-07-29T14:29:34;30.00;36.30
69626;DHT22;56847;51.984;5.088;2022-07-29T14:32:08;30.10;36.50
69626;DHT22;56847;51.984;5.088;2022-07-29T14:34:37;30.10;36.20
69626;DHT22;56847;51.984;5.088;2022-07-29T14:37:05;30.10;36.20
69626;DHT22;56847;51.984;5.088;2022-07-29T14:39:34;30.20;36.20
69626;DHT22;56847;51.984;5.088;2022-07-29T14:42:11;30.30;35.90
69626;DHT22;56847;51.984;5.088;2022-07-29T14:44:40;30.40;35.50
69626;DHT22;56847;51.984;5.088;2022-07-29T14:47:08;30.40;35.20
69626;DHT22;56847;51.984;5.088;2022-07-29T14:49:35;30.20;35.30
69626;DHT22;56847;51.984;5.088;2022-07-29T14:52:03;30.10;35.40
69626;DHT22;56847;51.984;5.088;2022-07-29T14:54:30;30.20;35.50
69626;DHT22;56847;51.984;5.088;2022-07-29T14:56:57;30.30;35.30
69626;DHT22;56847;51.984;5.088;2022-07-29T14:59:25;30.40;35.20
69626;DHT22;56847;51.984;5.088;2022-07-29T15:01:52;30.40;34.90
69626;DHT22;56847;51.984;5.088;2022-07-29T15:04:20;30.30;34.80
69626;DHT22;56847;51.984;5.088;2022-07-29T15:06:47;30.30;35.10
69626;DHT22;56847;51.984;5.088;2022-07-29T15:09:14;30.30;35.00
69626;DHT22;56847;51.984;5.088;2022-07-29T15:11:41;30.40;35.30
69626;DHT22;56847;51.984;5.088;2022-07-29T15:14:08;30.50;35.30
69626;DHT22;56847;51.984;5.088;2022-07-29T15:16:37;30.60;34.90
69626;DHT22;56847;51.984;5.088;2022-07-29T15:19:09;30.80;34.80
69626;DHT22;56847;51.984;5.088;2022-07-29T15:21:39;30.90;34.80
69626;DHT22;56847;51.984;5.088;2022-07-29T15:24:15;30.70;35.10
69626;DHT22;56847;51.984;5.088;2022-07-29T15:26:43;30.50;35.50
69626;DHT22;56847;51.984;5.088;2022-07-29T15:29:10;30.50;35.80
69626;DHT22;56847;51.984;5.088;2022-07-29T15:31:37;30.60;36.00
69626;DHT22;56847;51.984;5.088;2022-07-29T15:34:06;30.70;35.90
69626;DHT22;56847;51.984;5.088;2022-07-29T15:36:33;30.80;35.90
69626;DHT22;56847;51.984;5.088;2022-07-29T15:39:19;31.00;35.60
69626;DHT22;56847;51.984;5.088;2022-07-29T15:41:47;31.10;35.30
69626;DHT22;56847;51.984;5.088;2022-07-29T15:44:14;31.00;35.10
69626;DHT22;56847;51.984;5.088;2022-07-29T15:46:41;30.90;35.10
69626;DHT22;56847;51.984;5.088;2022-07-29T15:49:40;30.90;35.30
69626;DHT22;56847;51.984;5.088;2022-07-29T15:52:18;31.00;35.10
69626;DHT22;56847;51.984;5.088;2022-07-29T15:54:55;30.90;35.50
69626;DHT22;56847;51.984;5.088;2022-07-29T15:57:23;30.90;35.50
69626;DHT22;56847;51.984;5.088;2022-07-29T15:59:51;30.80;35.70
69626;DHT22;56847;51.984;5.088;2022-07-29T16:02:18;30.80;36.10
69626;DHT22;56847;51.984;5.088;2022-07-29T16:04:45;30.80;35.80
69626;DHT22;56847;51.984;5.088;2022-07-29T16:07:13;30.50;35.80
69626;DHT22;56847;51.984;5.088;2022-07-29T16:09:41;30.30;35.80
69626;DHT22;56847;51.984;5.088;2022-07-29T16:12:08;30.00;36.20
69626;DHT22;56847;51.984;5.088;2022-07-29T16:14:42;29.90;36.60
69626;DHT22;56847;51.984;5.088;2022-07-29T16:17:09;30.10;36.60
69626;DHT22;56847;51.984;5.088;2022-07-29T16:19:44;30.50;36.50
69626;DHT22;56847;51.984;5.088;2022-07-29T16:22:11;30.80;36.00
69626;DHT22;56847;51.984;5.088;2022-07-29T16:24:39;30.90;35.70
69626;DHT22;56847;51.984;5.088;2022-07-29T16:27:08;31.00;35.60